Time;durP1;ratioP1;P1;durP2;ratioP2;P2;SDS_P1;SDS_P2;PMS_P1;PMS_P2;Temp;Humidity;BMP_temperature;BMP_pressure;BME280_temperature;BME280_humidity;BME280_pressure;Samples;Min_cycle;Max_cycle;Signal;HPM_P1;HPM_P2
2023/11/21 06:02:42;;;;;;;3.03;1.77;;;;;;;;;;4933460;29;20982;-70
2023/11/21 06:05:09;;;;;;;6.57;2.00;;;;;;;;;;4934492;29;20489;-70
2023/11/21 06:07:35;;;;;;;3.87;1.80;;;;;;;;;;4933849;29;20427;-70
2023/11/21 06:10:05;;;;;;;4.33;1.50;;;;;;;;;;4934150;29;20964;-70
2023/11/21 06:12:35;;;;;;;6.60;1.73;;;;;;;;;;4931432;29;20830;-69
2023/11/21 06:15:01;;;;;;;2.90;1.40;;;;;;;;;;4940042;23;20505;-74
2023/11/21 06:17:28;;;;;;;2.70;1.43;;;;;;;;;;4915452;29;20418;-74
2023/11/21 06:19:54;;;;;;;1.80;1.50;;;;;;;;;;4915465;29;20411;-74
2023/11/21 06:22:20;;;;;;;4.23;2.47;;;;;;;;;;4915494;29;20439;-74
2023/11/21 06:24:46;;;;;;;6.30;3.30;;;;;;;;;;4915351;29;20880;-74
2023/11/21 06:27:12;;;;;;;2.30;1.17;;;;;;;;;;4916353;29;20419;-74
2023/11/21 06:29:38;;;;;;;6.97;3.70;;;;;;;;;;4918675;29;20411;-74
2023/11/21 06:32:05;;;;;;;2.87;1.50;;;;;;;;;;4918692;29;20465;-74
2023/11/21 06:34:31;;;;;;;2.00;1.40;;;;;;;;;;4918747;29;20548;-74
2023/11/21 06:36:57;;;;;;;2.77;1.30;;;;;;;;;;4918327;29;20493;-74
2023/11/21 06:39:23;;;;;;;3.70;1.17;;;;;;;;;;4916855;29;20474;-74
2023/11/21 06:41:51;;;;;;;3.77;1.70;;;;;;;;;;4901958;29;20847;-74
2023/11/21 06:44:19;;;;;;;12.33;1.60;;;;;;;;;;4899506;29;20439;-72
2023/11/21 06:46:45;;;;;;;3.50;1.97;;;;;;;;;;4900047;29;20938;-72
2023/11/21 06:49:11;;;;;;;5.20;1.57;;;;;;;;;;4907955;29;20422;-72
2023/11/21 06:51:37;;;;;;;3.17;1.60;;;;;;;;;;4918683;29;20466;-71
2023/11/21 06:54:04;;;;;;;5.10;1.67;;;;;;;;;;4917014;29;20800;-67
2023/11/21 06:56:30;;;;;;;10.00;3.20;;;;;;;;;;4917950;29;20433;-67
2023/11/21 06:58:56;;;;;;;4.37;2.97;;;;;;;;;;4918544;29;20415;-71
2023/11/21 07:01:22;;;;;;;2.73;1.63;;;;;;;;;;4905647;29;20572;-72
2023/11/21 07:03:48;;;;;;;2.40;1.57;;;;;;;;;;4899249;29;20462;-71
2023/11/21 07:06:14;;;;;;;7.70;1.80;;;;;;;;;;4918119;29;20433;-71
2023/11/21 07:08:40;;;;;;;5.93;2.40;;;;;;;;;;4918575;29;20426;-72
2023/11/21 07:11:07;;;;;;;3.03;1.87;;;;;;;;;;4917999;29;20573;-71
2023/11/21 07:13:33;;;;;;;6.17;1.90;;;;;;;;;;4918283;29;20482;-73
2023/11/21 07:15:59;;;;;;;8.30;1.70;;;;;;;;;;4918176;29;20449;-71
2023/11/21 07:18:25;;;;;;;3.10;1.87;;;;;;;;;;4917115;29;20930;-72
2023/11/21 07:20:52;;;;;;;1.77;1.33;;;;;;;;;;4918211;29;20503;-72
2023/11/21 07:23:18;;;;;;;4.03;2.03;;;;;;;;;;4918039;29;20771;-73
2023/11/21 07:25:44;;;;;;;4.00;2.00;;;;;;;;;;4902281;29;20474;-73
2023/11/21 07:28:10;;;;;;;5.80;2.90;;;;;;;;;;4900572;29;20486;-72
2023/11/21 07:30:36;;;;;;;2.20;1.80;;;;;;;;;;4901633;29;20600;-71
2023/11/21 07:33:02;;;;;;;3.67;1.63;;;;;;;;;;4899164;29;20856;-71
2023/11/21 07:35:28;;;;;;;8.30;2.20;;;;;;;;;;4903079;29;20453;-71
2023/11/21 07:37:53;;;;;;;2.13;1.80;;;;;;;;;;4909989;29;20419;-73
2023/11/21 07:40:19;;;;;;;1.50;1.47;;;;;;;;;;4902809;29;20614;-70
2023/11/21 07:42:46;;;;;;;4.63;2.10;;;;;;;;;;4916050;29;20419;-73
2023/11/21 07:45:12;;;;;;;2.37;1.70;;;;;;;;;;4906618;29;20434;-72
2023/11/21 07:47:38;;;;;;;3.60;2.30;;;;;;;;;;4917290;29;20433;-72
2023/11/21 07:50:05;;;;;;;6.47;1.90;;;;;;;;;;4917262;29;20411;-72
2023/11/21 07:52:31;;;;;;;2.10;1.80;;;;;;;;;;4917609;29;20419;-72
2023/11/21 07:54:57;;;;;;;3.27;1.67;;;;;;;;;;4916889;29;20462;-72
2023/11/21 07:57:23;;;;;;;11.37;2.53;;;;;;;;;;4916760;29;20796;-72
2023/11/21 07:59:48;;;;;;;3.00;2.10;;;;;;;;;;4916789;29;20422;-73
2023/11/21 08:02:17;;;;;;;2.93;1.67;;;;;;;;;;4911425;29;20423;-72
2023/11/21 08:04:44;;;;;;;4.57;1.77;;;;;;;;;;4917826;29;20447;-72
2023/11/21 08:07:10;;;;;;;4.67;2.17;;;;;;;;;;4917826;29;20427;-72
2023/11/21 08:09:37;;;;;;;3.07;1.90;;;;;;;;;;4916895;29;20430;-72
2023/11/21 08:12:04;;;;;;;5.70;2.10;;;;;;;;;;4917022;29;20618;-71
2023/11/21 08:14:30;;;;;;;3.43;2.00;;;;;;;;;;4910000;29;20515;-72
2023/11/21 08:16:57;;;;;;;3.53;1.87;;;;;;;;;;4912193;29;20415;-72
2023/11/21 08:19:27;;;;;;;8.70;2.20;;;;;;;;;;4904528;29;20427;-73
2023/11/21 08:21:54;;;;;;;3.43;2.60;;;;;;;;;;4912056;29;20453;-73
2023/11/21 08:24:20;;;;;;;4.67;2.83;;;;;;;;;;4916852;29;20430;-74
2023/11/21 08:26:46;;;;;;;5.07;2.50;;;;;;;;;;4915011;29;20440;-72
2023/11/21 08:29:12;;;;;;;3.00;1.80;;;;;;;;;;4915377;29;20517;-72
2023/11/21 08:31:38;;;;;;;3.50;1.90;;;;;;;;;;4916333;29;20541;-72
2023/11/21 08:34:04;;;;;;;3.93;2.27;;;;;;;;;;4898780;29;20443;-72
2023/11/21 08:36:31;;;;;;;4.20;2.03;;;;;;;;;;4910733;29;20798;-73
2023/11/21 08:38:57;;;;;;;4.07;2.00;;;;;;;;;;4899161;29;20899;-73
2023/11/21 08:41:23;;;;;;;3.13;2.33;;;;;;;;;;4911296;29;20437;-73
2023/11/21 08:43:54;;;;;;;5.30;2.10;;;;;;;;;;4914877;29;20526;-72
2023/11/21 08:46:21;;;;;;;2.17;1.77;;;;;;;;;;4914698;29;20433;-73
2023/11/21 08:48:52;;;;;;;2.03;1.77;;;;;;;;;;4908308;29;20430;-74
2023/11/21 08:51:18;;;;;;;5.23;2.23;;;;;;;;;;4916628;29;20557;-73
2023/11/21 08:53:44;;;;;;;5.63;2.13;;;;;;;;;;4913936;29;20442;-73
2023/11/21 08:56:16;;;;;;;2.03;1.80;;;;;;;;;;4915971;29;20433;-74
2023/11/21 08:58:42;;;;;;;3.47;1.90;;;;;;;;;;4915048;29;20826;-74
2023/11/21 09:01:08;;;;;;;4.63;2.00;;;;;;;;;;4912441;29;20529;-72
2023/11/21 09:03:34;;;;;;;2.40;1.57;;;;;;;;;;4914069;29;20961;-72
2023/11/21 09:06:00;;;;;;;3.87;1.80;;;;;;;;;;4914755;29;20910;-72
2023/11/21 09:08:29;;;;;;;3.77;1.90;;;;;;;;;;4897305;29;20417;-73
2023/11/21 09:10:55;;;;;;;2.20;1.93;;;;;;;;;;4899945;29;20486;-74
2023/11/21 09:13:21;;;;;;;9.30;2.10;;;;;;;;;;4906541;29;20434;-73
2023/11/21 09:15:47;;;;;;;2.33;2.07;;;;;;;;;;4899370;29;20425;-74
2023/11/21 09:18:16;;;;;;;2.50;1.90;;;;;;;;;;4912383;29;20882;-73
2023/11/21 09:20:44;;;;;;;2.03;1.70;;;;;;;;;;4912457;29;20430;-72
2023/11/21 09:23:10;;;;;;;3.80;1.73;;;;;;;;;;4912567;29;20426;-76
2023/11/21 09:25:37;;;;;;;4.07;1.90;;;;;;;;;;4923858;29;20451;-75
2023/11/21 09:28:07;;;;;;;4.33;2.40;;;;;;;;;;4920986;29;20757;-76
2023/11/21 09:30:33;;;;;;;2.30;1.67;;;;;;;;;;4915629;29;20483;-74
2023/11/21 09:33:00;;;;;;;2.97;1.87;;;;;;;;;;4898744;29;20471;-74
2023/11/21 09:35:27;;;;;;;5.40;2.20;;;;;;;;;;4900474;29;20435;-73
2023/11/21 09:37:53;;;;;;;3.93;2.33;;;;;;;;;;4930132;29;20417;-75
2023/11/21 09:40:22;;;;;;;3.30;2.53;;;;;;;;;;4903242;29;20423;-73
2023/11/21 09:42:58;;;;;;;2.87;2.00;;;;;;;;;;4926516;29;20425;-74
2023/11/21 09:45:28;;;;;;;3.23;2.43;;;;;;;;;;4908650;29;20442;-74
2023/11/21 09:47:57;;;;;;;7.73;2.17;;;;;;;;;;4896829;29;20416;-73
2023/11/21 09:50:24;;;;;;;4.80;2.20;;;;;;;;;;4907702;29;20430;-72
2023/11/21 09:52:53;;;;;;;3.80;1.73;;;;;;;;;;4914792;29;20937;-72
2023/11/21 09:55:21;;;;;;;5.83;2.50;;;;;;;;;;4915441;29;20462;-72
2023/11/21 09:57:48;;;;;;;8.03;2.77;;;;;;;;;;4914476;29;20426;-72
2023/11/21 10:00:17;;;;;;;3.53;2.17;;;;;;;;;;4916509;29;20406;-72
2023/11/21 10:02:44;;;;;;;4.07;3.03;;;;;;;;;;4908942;29;20506;-73
2023/11/21 10:05:11;;;;;;;9.60;3.20;;;;;;;;;;4900126;29;20438;-73
2023/11/21 10:07:38;;;;;;;3.43;2.20;;;;;;;;;;4916416;29;20418;-73
2023/11/21 10:10:05;;;;;;;3.60;2.50;;;;;;;;;;4919014;29;20418;-74
2023/11/21 10:12:33;;;;;;;7.80;3.23;;;;;;;;;;4910472;29;20482;-73
2023/11/21 10:15:00;;;;;;;2.40;2.03;;;;;;;;;;4898631;29;20569;-74
2023/11/21 10:17:30;;;;;;;3.30;2.17;;;;;;;;;;4919095;29;20813;-74
2023/11/21 10:19:57;;;;;;;5.43;2.80;;;;;;;;;;4900130;29;20916;-72
2023/11/21 10:22:23;;;;;;;4.10;2.40;;;;;;;;;;4913687;29;20473;-72
2023/11/21 10:24:49;;;;;;;5.30;2.83;;;;;;;;;;4917985;29;20442;-72
2023/11/21 10:27:15;;;;;;;4.47;2.83;;;;;;;;;;4923556;29;20842;-73
2023/11/21 10:29:41;;;;;;;5.67;3.00;;;;;;;;;;4926186;29;20426;-71
2023/11/21 10:32:07;;;;;;;4.00;2.50;;;;;;;;;;4928524;29;20474;-73
2023/11/21 10:34:34;;;;;;;5.53;3.63;;;;;;;;;;4925508;29;20621;-71
2023/11/21 10:37:11;;;;;;;4.13;2.70;;;;;;;;;;4930605;29;20438;-73
2023/11/21 10:39:37;;;;;;;4.07;2.60;;;;;;;;;;4927235;29;20441;-71
2023/11/21 10:42:03;;;;;;;4.17;2.37;;;;;;;;;;4922194;29;20440;-73
2023/11/21 10:44:29;;;;;;;4.30;2.27;;;;;;;;;;4918411;29;20438;-73
2023/11/21 10:47:00;;;;;;;4.07;2.80;;;;;;;;;;4928496;29;20433;-73
2023/11/21 10:49:27;;;;;;;1.40;1.30;;;;;;;;;;4922612;29;20465;-73
2023/11/21 10:51:56;;;;;;;2.07;1.93;;;;;;;;;;4918179;29;20906;-72
2023/11/21 10:54:23;;;;;;;7.67;1.57;;;;;;;;;;4926314;29;20952;-72
2023/11/21 10:56:51;;;;;;;2.20;1.20;;;;;;;;;;4918072;29;20454;-72
2023/11/21 10:59:17;;;;;;;1.67;1.33;;;;;;;;;;4918178;29;20894;-72
2023/11/21 11:01:45;;;;;;;1.57;1.50;;;;;;;;;;4917913;29;20426;-72
2023/11/21 11:04:16;;;;;;;1.33;1.23;;;;;;;;;;4922974;29;20461;-72
2023/11/21 11:06:45;;;;;;;2.00;1.60;;;;;;;;;;4930983;29;20437;-73
2023/11/21 11:09:13;;;;;;;1.57;1.53;;;;;;;;;;4931060;29;20443;-71
2023/11/21 11:11:43;;;;;;;2.73;1.20;;;;;;;;;;4915045;29;20478;-74
2023/11/21 11:14:12;;;;;;;3.50;2.03;;;;;;;;;;4917085;29;20478;-73
2023/11/21 11:16:41;;;;;;;3.13;1.80;;;;;;;;;;4917820;29;20426;-73
2023/11/21 11:19:13;;;;;;;2.43;1.80;;;;;;;;;;4917697;29;20442;-74
2023/11/21 11:22:04;;;;;;;2.30;1.90;;;;;;;;;;4911988;29;20432;-74
2023/11/21 11:24:36;;;;;;;2.30;2.00;;;;;;;;;;4904444;29;20855;-73
2023/11/21 11:27:11;;;;;;;1.27;0.97;;;;;;;;;;4924300;29;20461;-73
2023/11/21 11:29:40;;;;;;;2.10;1.30;;;;;;;;;;4925591;29;20433;-74
2023/11/21 11:32:25;;;;;;;2.50;1.43;;;;;;;;;;4926007;29;20489;-72
2023/11/21 11:35:02;;;;;;;7.03;1.83;;;;;;;;;;4924596;29;20454;-72
2023/11/21 11:37:28;;;;;;;2.70;1.80;;;;;;;;;;4918089;29;20415;-73
2023/11/21 11:39:55;;;;;;;3.97;1.93;;;;;;;;;;4917190;29;20895;-73
2023/11/21 11:42:23;;;;;;;4.83;1.87;;;;;;;;;;4917666;29;20509;-72
2023/11/21 11:44:51;;;;;;;5.40;2.10;;;;;;;;;;4916161;29;20898;-73
2023/11/21 11:47:25;;;;;;;4.10;2.27;;;;;;;;;;4917252;29;20429;-72
2023/11/21 11:49:58;;;;;;;2.20;2.00;;;;;;;;;;4911868;29;20518;-72
2023/11/21 11:52:44;;;;;;;1.90;1.80;;;;;;;;;;4915602;29;21089;-71
2023/11/21 11:55:13;;;;;;;1.63;1.60;;;;;;;;;;4898359;29;21058;-72
2023/11/21 11:57:39;;;;;;;2.00;1.90;;;;;;;;;;4914920;29;20473;-72
2023/11/21 12:00:16;;;;;;;1.93;1.60;;;;;;;;;;4916924;29;20442;-73
2023/11/21 12:02:44;;;;;;;1.70;1.60;;;;;;;;;;4916409;29;20414;-72
2023/11/21 12:05:15;;;;;;;3.13;1.90;;;;;;;;;;4916240;29;20774;-74
2023/11/21 12:07:45;;;;;;;2.40;2.20;;;;;;;;;;4909592;29;21131;-74
2023/11/21 12:10:14;;;;;;;3.43;2.40;;;;;;;;;;4909507;29;20407;-73
2023/11/21 12:12:44;;;;;;;2.03;1.70;;;;;;;;;;4914751;29;20419;-74
2023/11/21 12:15:11;;;;;;;2.73;1.57;;;;;;;;;;4945265;23;20843;-74
2023/11/21 12:17:38;;;;;;;3.10;1.50;;;;;;;;;;4938620;29;20452;-75
2023/11/21 12:20:06;;;;;;;1.70;1.60;;;;;;;;;;4937111;29;20853;-73
2023/11/21 12:22:33;;;;;;;6.53;1.87;;;;;;;;;;4938393;29;20413;-72
2023/11/21 12:24:59;;;;;;;3.17;2.33;;;;;;;;;;4937316;29;20569;-74
2023/11/21 12:27:25;;;;;;;1.30;1.20;;;;;;;;;;4936990;29;20572;-77
2023/11/21 12:29:51;;;;;;;1.50;1.50;;;;;;;;;;4936814;29;20485;-73
2023/11/21 12:32:18;;;;;;;3.20;1.70;;;;;;;;;;4936765;29;20470;-74
2023/11/21 12:34:44;;;;;;;2.87;1.70;;;;;;;;;;4921611;29;20910;-75
2023/11/21 12:37:10;;;;;;;2.90;2.23;;;;;;;;;;4923405;29;20422;-74
2023/11/21 12:39:36;;;;;;;1.83;1.73;;;;;;;;;;4935435;29;20498;-73
2023/11/21 12:42:02;;;;;;;1.47;1.40;;;;;;;;;;4935644;29;20939;-73
2023/11/21 12:44:28;;;;;;;1.87;1.83;;;;;;;;;;4937238;29;20458;-74
2023/11/21 12:46:55;;;;;;;2.67;2.07;;;;;;;;;;4930712;29;20434;-74
2023/11/21 12:49:21;;;;;;;1.80;1.70;;;;;;;;;;4933122;29;20452;-74
2023/11/21 12:51:47;;;;;;;2.23;1.73;;;;;;;;;;4939157;29;20465;-73
2023/11/21 12:54:14;;;;;;;2.87;2.67;;;;;;;;;;4938813;29;20449;-73
2023/11/21 12:56:40;;;;;;;2.90;2.70;;;;;;;;;;4936871;29;20747;-73
2023/11/21 12:59:06;;;;;;;3.03;2.27;;;;;;;;;;4943862;29;20449;-76
2023/11/21 13:01:32;;;;;;;2.70;2.50;;;;;;;;;;4934530;29;20427;-77
2023/11/21 13:03:58;;;;;;;3.63;2.33;;;;;;;;;;4930982;29;20473;-78
2023/11/21 13:06:25;;;;;;;4.47;2.20;;;;;;;;;;4936381;29;20499;-77
2023/11/21 13:08:52;;;;;;;3.00;2.73;;;;;;;;;;4952610;29;20444;-77
2023/11/21 13:11:18;;;;;;;3.97;2.13;;;;;;;;;;4938175;29;20484;-76
2023/11/21 13:13:44;;;;;;;2.90;2.40;;;;;;;;;;4937073;29;20520;-76
2023/11/21 13:16:11;;;;;;;3.80;3.10;;;;;;;;;;4932886;29;20446;-75
2023/11/21 13:18:39;;;;;;;3.20;2.50;;;;;;;;;;4936099;29;20862;-75
2023/11/21 13:21:17;;;;;;;5.03;3.00;;;;;;;;;;4936300;29;20421;-73
2023/11/21 13:23:45;;;;;;;5.23;3.83;;;;;;;;;;4935909;29;20430;-76
2023/11/21 13:26:12;;;;;;;4.10;2.90;;;;;;;;;;4935760;29;20414;-76
2023/11/21 13:28:40;;;;;;;6.93;4.07;;;;;;;;;;4936367;29;20464;-75
2023/11/21 13:31:09;;;;;;;5.13;3.30;;;;;;;;;;4936064;29;20615;-76
2023/11/21 13:33:38;;;;;;;7.63;3.97;;;;;;;;;;4935907;29;20909;-75
2023/11/21 13:36:07;;;;;;;4.57;3.30;;;;;;;;;;4934958;29;20413;-76
2023/11/21 13:38:35;;;;;;;6.00;3.63;;;;;;;;;;4936934;29;20425;-76
2023/11/21 13:41:02;;;;;;;5.17;3.20;;;;;;;;;;4936988;29;20810;-76
2023/11/21 13:43:28;;;;;;;3.93;3.00;;;;;;;;;;4937856;29;20512;-77
2023/11/21 13:46:01;;;;;;;6.10;2.80;;;;;;;;;;4935970;29;20425;-76
2023/11/21 13:48:40;;;;;;;6.30;3.80;;;;;;;;;;4937177;29;20516;-75
2023/11/21 13:51:20;;;;;;;6.00;4.03;;;;;;;;;;4929729;29;20469;-77
2023/11/21 13:53:53;;;;;;;6.23;3.20;;;;;;;;;;4937580;29;20547;-76
2023/11/21 13:56:23;;;;;;;5.23;3.50;;;;;;;;;;4945594;29;20408;-78
2023/11/21 13:58:53;;;;;;;4.87;2.80;;;;;;;;;;4938901;28;20429;-75
2023/11/21 14:06:50;;;;;;;4.40;3.23;;;;;;;;;;4939398;29;20436;-74
2023/11/21 14:09:24;;;;;;;4.30;3.20;;;;;;;;;;4936193;29;20543;-76
2023/11/21 14:11:55;;;;;;;5.60;3.60;;;;;;;;;;4936725;29;20464;-77
2023/11/21 14:14:22;;;;;;;5.80;3.57;;;;;;;;;;4936166;29;20489;-76
2023/11/21 14:16:48;;;;;;;7.43;3.23;;;;;;;;;;4935693;29;20422;-76
2023/11/21 14:19:17;;;;;;;4.30;3.07;;;;;;;;;;4936932;29;20520;-75
2023/11/21 14:21:46;;;;;;;5.23;2.93;;;;;;;;;;4936733;29;20426;-73
2023/11/21 14:24:12;;;;;;;4.73;2.77;;;;;;;;;;4940088;29;20970;-76
2023/11/21 14:26:40;;;;;;;3.07;2.77;;;;;;;;;;4952024;28;20412;-73
2023/11/21 14:29:07;;;;;;;4.03;2.53;;;;;;;;;;4954007;29;20421;-74
2023/11/21 14:31:33;;;;;;;10.00;4.83;;;;;;;;;;4955725;28;20543;-69
2023/11/21 14:34:01;;;;;;;8.13;4.40;;;;;;;;;;4947799;28;20515;-69
2023/11/21 14:36:27;;;;;;;8.37;4.40;;;;;;;;;;4956857;28;20437;-70
2023/11/21 14:38:53;;;;;;;4.67;3.00;;;;;;;;;;4952720;29;20398;-73
2023/11/21 14:41:19;;;;;;;6.50;4.23;;;;;;;;;;4944661;29;20429;-73
2023/11/21 14:43:49;;;;;;;9.30;5.13;;;;;;;;;;4936123;29;20774;-75
2023/11/21 14:46:18;;;;;;;6.90;4.50;;;;;;;;;;4935956;29;20418;-73
2023/11/21 14:48:47;;;;;;;6.40;4.00;;;;;;;;;;4936957;29;20885;-73
2023/11/21 14:51:30;;;;;;;7.60;3.60;;;;;;;;;;4938323;29;20903;-73
2023/11/21 14:53:59;;;;;;;5.67;3.30;;;;;;;;;;4937360;29;21009;-74
2023/11/21 14:56:34;;;;;;;4.17;3.00;;;;;;;;;;4937096;29;20451;-72
2023/11/21 14:59:05;;;;;;;4.07;2.10;;;;;;;;;;4939074;29;20413;-73
2023/11/21 15:01:54;;;;;;;7.90;3.30;;;;;;;;;;4938881;29;20957;-72
2023/11/21 15:04:35;;;;;;;2.57;2.40;;;;;;;;;;4937903;29;20446;-74
2023/11/21 15:07:02;;;;;;;2.60;2.10;;;;;;;;;;4938324;29;20425;-73
2023/11/21 15:12:14;;;;;;;2.90;2.40;;;;;;;;;;4937336;29;20469;-75
2023/11/21 15:14:41;;;;;;;3.23;2.47;;;;;;;;;;4919175;29;20482;-75
2023/11/21 15:17:07;;;;;;;6.70;2.50;;;;;;;;;;4919350;29;20418;-74
2023/11/21 15:19:35;;;;;;;3.10;2.83;;;;;;;;;;4919548;29;20426;-75
2023/11/21 15:22:01;;;;;;;4.20;2.40;;;;;;;;;;4919109;29;20438;-74
2023/11/21 15:24:27;;;;;;;3.97;2.50;;;;;;;;;;4923616;29;20601;-75
2023/11/21 15:26:53;;;;;;;2.47;2.30;;;;;;;;;;4920176;29;20447;-74
2023/11/21 15:29:21;;;;;;;4.10;3.00;;;;;;;;;;4918887;29;20447;-73
2023/11/21 15:31:48;;;;;;;5.73;2.67;;;;;;;;;;4918974;29;20477;-75
2023/11/21 15:34:15;;;;;;;3.30;2.80;;;;;;;;;;4919036;29;20845;-75
2023/11/21 15:36:41;;;;;;;8.90;3.60;;;;;;;;;;4917410;29;20633;-73
2023/11/21 15:39:10;;;;;;;5.57;3.07;;;;;;;;;;4920164;29;20513;-74
2023/11/21 15:41:37;;;;;;;6.00;3.30;;;;;;;;;;4935792;29;20426;-71
2023/11/21 15:44:04;;;;;;;6.93;4.00;;;;;;;;;;4937713;29;20472;-71
2023/11/21 15:46:31;;;;;;;5.00;3.33;;;;;;;;;;4937651;29;20417;-73
2023/11/21 15:48:57;;;;;;;4.73;3.27;;;;;;;;;;4937984;29;20779;-74
2023/11/21 15:51:23;;;;;;;11.20;4.40;;;;;;;;;;4936543;29;20478;-72
2023/11/21 15:53:49;;;;;;;5.27;3.60;;;;;;;;;;4938161;29;20422;-74
2023/11/21 15:56:15;;;;;;;6.43;4.67;;;;;;;;;;4938234;29;20461;-77
2023/11/21 15:58:46;;;;;;;4.20;3.47;;;;;;;;;;4940034;29;20414;-77
2023/11/21 16:01:13;;;;;;;12.63;4.00;;;;;;;;;;4941226;29;20436;-76
2023/11/21 16:03:39;;;;;;;6.20;4.20;;;;;;;;;;4941825;29;20422;-76
2023/11/21 16:06:09;;;;;;;9.47;4.50;;;;;;;;;;4946519;29;20417;-74
2023/11/21 16:08:36;;;;;;;7.13;4.30;;;;;;;;;;4941797;28;20557;-73
2023/11/21 16:11:03;;;;;;;8.10;4.43;;;;;;;;;;4948039;29;20563;-75
2023/11/21 16:13:29;;;;;;;9.00;4.47;;;;;;;;;;4944486;29;20493;-75
2023/11/21 16:15:55;;;;;;;8.30;4.17;;;;;;;;;;4948283;29;20451;-74
2023/11/21 16:18:21;;;;;;;9.43;4.60;;;;;;;;;;4943556;29;20406;-74
2023/11/21 16:20:48;;;;;;;8.23;4.57;;;;;;;;;;4937619;29;20417;-74
2023/11/21 16:23:16;;;;;;;11.60;4.90;;;;;;;;;;4937554;29;20500;-74
2023/11/21 16:25:42;;;;;;;7.50;4.70;;;;;;;;;;4937095;29;20447;-74
2023/11/21 16:28:08;;;;;;;7.43;4.83;;;;;;;;;;4935962;29;21130;-75
2023/11/21 16:30:35;;;;;;;14.00;4.90;;;;;;;;;;4937079;29;20406;-73
2023/11/21 16:33:02;;;;;;;13.50;6.67;;;;;;;;;;4937362;29;20421;-73
2023/11/21 16:35:28;;;;;;;17.33;5.73;;;;;;;;;;4936978;29;20437;-73
2023/11/21 16:37:54;;;;;;;11.50;6.23;;;;;;;;;;4937417;29;20821;-73
2023/11/21 16:40:20;;;;;;;15.33;6.20;;;;;;;;;;4935223;29;20476;-75
2023/11/21 16:42:46;;;;;;;12.20;6.00;;;;;;;;;;4937141;29;20459;-73
2023/11/21 16:45:12;;;;;;;9.67;5.60;;;;;;;;;;4937289;29;20437;-75
2023/11/21 16:47:39;;;;;;;9.93;5.57;;;;;;;;;;4937820;29;20414;-74
2023/11/21 16:50:06;;;;;;;9.17;5.13;;;;;;;;;;4938682;29;20452;-75
2023/11/21 16:52:32;;;;;;;12.27;6.73;;;;;;;;;;4938243;29;20462;-73
2023/11/21 16:54:58;;;;;;;13.97;7.50;;;;;;;;;;4937850;29;20937;-75
2023/11/21 16:57:24;;;;;;;11.50;6.90;;;;;;;;;;4936985;29;20472;-73
2023/11/21 16:59:50;;;;;;;16.10;7.80;;;;;;;;;;4936890;29;20674;-73
2023/11/21 17:02:20;;;;;;;12.60;7.10;;;;;;;;;;4935543;29;20429;-75
2023/11/21 17:04:46;;;;;;;15.60;7.27;;;;;;;;;;4937054;29;20446;-74
2023/11/21 17:07:14;;;;;;;14.10;6.33;;;;;;;;;;4952186;29;20416;-75
2023/11/21 17:09:40;;;;;;;19.17;7.70;;;;;;;;;;4947888;29;20433;-75
2023/11/21 17:12:06;;;;;;;13.70;6.90;;;;;;;;;;4947316;29;20465;-73
2023/11/21 17:14:33;;;;;;;12.70;6.90;;;;;;;;;;4944378;29;20951;-68
2023/11/21 17:16:59;;;;;;;16.90;7.97;;;;;;;;;;4944607;28;20836;-73
2023/11/21 17:19:25;;;;;;;16.50;8.57;;;;;;;;;;4945295;28;20420;-75
2023/11/21 17:21:51;;;;;;;18.77;9.47;;;;;;;;;;4939235;29;20421;-75
2023/11/21 17:24:17;;;;;;;20.83;9.00;;;;;;;;;;4937042;29;20956;-74
2023/11/21 17:26:44;;;;;;;22.60;9.80;;;;;;;;;;4951167;29;20421;-73
2023/11/21 17:29:10;;;;;;;19.10;8.93;;;;;;;;;;4954456;29;20398;-72
2023/11/21 17:31:36;;;;;;;20.20;11.13;;;;;;;;;;4953071;29;20465;-72
2023/11/21 17:34:02;;;;;;;24.47;11.50;;;;;;;;;;4954837;29;20458;-73
2023/11/21 17:36:28;;;;;;;15.43;8.37;;;;;;;;;;4954351;29;20429;-73
2023/11/21 17:38:55;;;;;;;20.03;8.77;;;;;;;;;;4954613;29;20413;-74
2023/11/21 17:41:21;;;;;;;16.27;8.43;;;;;;;;;;4938941;29;20477;-74
2023/11/21 17:43:47;;;;;;;12.30;8.03;;;;;;;;;;4940286;29;20946;-72
2023/11/21 17:46:19;;;;;;;13.80;7.53;;;;;;;;;;4940253;29;20430;-72
2023/11/21 17:48:45;;;;;;;23.50;9.90;;;;;;;;;;4939703;29;20422;-72
2023/11/21 17:51:11;;;;;;;20.70;10.27;;;;;;;;;;4937623;29;20881;-72
2023/11/21 17:53:37;;;;;;;22.03;9.60;;;;;;;;;;4953081;28;20416;-72
2023/11/21 17:56:03;;;;;;;19.57;9.13;;;;;;;;;;4958950;28;20775;-73
2023/11/21 17:58:29;;;;;;;19.97;10.40;;;;;;;;;;4958458;28;20405;-71
2023/11/21 18:00:55;;;;;;;19.40;10.13;;;;;;;;;;4958854;29;20431;-73
2023/11/21 18:03:21;;;;;;;17.10;9.97;;;;;;;;;;4955904;29;20484;-72
2023/11/21 18:05:47;;;;;;;21.53;9.53;;;;;;;;;;4958466;29;20541;-71
2023/11/21 18:08:14;;;;;;;16.60;9.93;;;;;;;;;;4968464;29;20417;-71
2023/11/21 18:10:40;;;;;;;13.10;9.00;;;;;;;;;;4969922;28;20409;-73
2023/11/21 18:13:06;;;;;;;19.00;8.80;;;;;;;;;;4959404;28;20413;-74
2023/11/21 18:15:32;;;;;;;17.60;9.53;;;;;;;;;;4990371;23;20512;-74
2023/11/21 18:17:58;;;;;;;17.37;9.00;;;;;;;;;;4957312;29;20449;-74
2023/11/21 18:20:24;;;;;;;19.63;10.00;;;;;;;;;;4957604;29;20435;-72
2023/11/21 18:22:50;;;;;;;17.03;9.10;;;;;;;;;;4962647;28;20466;-72
2023/11/21 18:25:17;;;;;;;17.43;9.00;;;;;;;;;;4961971;29;20432;-71
2023/11/21 18:27:43;;;;;;;16.93;8.83;;;;;;;;;;4962049;28;20405;-72
2023/11/21 18:30:10;;;;;;;15.43;8.80;;;;;;;;;;4960971;28;20443;-72
2023/11/21 18:32:36;;;;;;;17.43;8.40;;;;;;;;;;4957435;28;20460;-73
2023/11/21 18:35:02;;;;;;;15.67;6.83;;;;;;;;;;4945661;29;20528;-73
2023/11/21 18:37:28;;;;;;;16.37;8.63;;;;;;;;;;4938019;29;20436;-75
2023/11/21 18:39:57;;;;;;;14.53;7.97;;;;;;;;;;4938316;29;20914;-72
2023/11/21 18:42:24;;;;;;;16.77;8.27;;;;;;;;;;4937865;29;20449;-72
2023/11/21 18:44:50;;;;;;;20.03;9.33;;;;;;;;;;4937618;29;20433;-73
2023/11/21 18:47:16;;;;;;;15.23;7.97;;;;;;;;;;4944007;29;20421;-73
2023/11/21 18:49:43;;;;;;;12.53;8.10;;;;;;;;;;4956554;28;20413;-73
2023/11/21 18:52:10;;;;;;;15.83;7.77;;;;;;;;;;4937695;29;20828;-72
2023/11/21 18:54:36;;;;;;;19.10;7.73;;;;;;;;;;4937353;29;20575;-73
2023/11/21 18:57:02;;;;;;;17.23;8.47;;;;;;;;;;4937420;29;20417;-73
2023/11/21 18:59:28;;;;;;;15.20;7.80;;;;;;;;;;4937530;29;20443;-74
2023/11/21 19:01:54;;;;;;;16.43;8.33;;;;;;;;;;4938304;29;20529;-75
2023/11/21 19:04:24;;;;;;;21.03;8.20;;;;;;;;;;4950542;29;20978;-73
2023/11/21 19:06:50;;;;;;;13.93;7.80;;;;;;;;;;4950439;28;20839;-73
2023/11/21 19:09:16;;;;;;;18.47;8.97;;;;;;;;;;4937232;29;20461;-73
2023/11/21 19:11:41;;;;;;;16.30;8.20;;;;;;;;;;4949695;29;20518;-73
2023/11/21 19:14:11;;;;;;;12.93;7.77;;;;;;;;;;4941859;28;20508;-74
2023/11/21 19:16:37;;;;;;;13.43;7.23;;;;;;;;;;4950785;28;20417;-73
2023/11/21 19:19:04;;;;;;;17.03;7.30;;;;;;;;;;4952441;28;20793;-73
2023/11/21 19:21:30;;;;;;;13.30;7.97;;;;;;;;;;4961854;28;20421;-72
2023/11/21 19:23:56;;;;;;;12.67;7.40;;;;;;;;;;4959888;28;20424;-72
2023/11/21 19:26:22;;;;;;;23.57;9.67;;;;;;;;;;4961009;28;20423;-73
2023/11/21 19:28:49;;;;;;;23.90;9.17;;;;;;;;;;4960874;28;20425;-73
2023/11/21 19:31:16;;;;;;;11.00;6.53;;;;;;;;;;4958347;28;20486;-72
2023/11/21 19:33:42;;;;;;;13.33;7.80;;;;;;;;;;4956146;28;20472;-72
2023/11/21 19:36:08;;;;;;;17.13;8.40;;;;;;;;;;4947774;28;20905;-70
2023/11/21 19:38:37;;;;;;;17.67;8.30;;;;;;;;;;4950164;28;20778;-72
2023/11/21 19:41:06;;;;;;;18.13;8.03;;;;;;;;;;4951531;28;20488;-72
2023/11/21 19:43:32;;;;;;;16.00;8.20;;;;;;;;;;4955770;28;20416;-71
2023/11/21 19:45:59;;;;;;;10.80;7.50;;;;;;;;;;4955676;28;20445;-72
2023/11/21 19:48:25;;;;;;;15.33;9.43;;;;;;;;;;4955947;28;20479;-72
2023/11/21 19:50:51;;;;;;;24.00;7.90;;;;;;;;;;4955637;28;20968;-74
2023/11/21 19:53:17;;;;;;;18.43;9.33;;;;;;;;;;4955456;28;20451;-74
2023/11/21 19:55:43;;;;;;;15.63;8.07;;;;;;;;;;4955131;28;20433;-73
2023/11/21 19:58:10;;;;;;;12.97;7.70;;;;;;;;;;4955434;28;20904;-73
2023/11/21 20:00:36;;;;;;;11.90;7.57;;;;;;;;;;4955571;28;20457;-72
2023/11/21 20:03:03;;;;;;;14.23;7.93;;;;;;;;;;4948969;28;20464;-73
2023/11/21 20:05:29;;;;;;;16.93;8.40;;;;;;;;;;4953921;28;20936;-74
2023/11/21 20:07:55;;;;;;;13.30;7.30;;;;;;;;;;4948080;28;20402;-73
2023/11/21 20:10:21;;;;;;;16.23;8.73;;;;;;;;;;4954611;28;20428;-73
2023/11/21 20:12:47;;;;;;;20.60;9.50;;;;;;;;;;4955208;28;20475;-73
2023/11/21 20:15:13;;;;;;;16.77;8.60;;;;;;;;;;4946281;28;20473;-73
2023/11/21 20:17:43;;;;;;;17.37;9.27;;;;;;;;;;4952064;28;20496;-73
2023/11/21 20:20:10;;;;;;;18.70;9.07;;;;;;;;;;4944945;28;20476;-73
2023/11/21 20:22:36;;;;;;;15.40;8.67;;;;;;;;;;4951981;28;20422;-73
2023/11/21 20:25:02;;;;;;;28.00;9.40;;;;;;;;;;4954526;28;20514;-74
2023/11/21 20:27:29;;;;;;;16.90;8.63;;;;;;;;;;4954816;28;20427;-73
2023/11/21 20:29:56;;;;;;;13.77;8.00;;;;;;;;;;4954453;28;20436;-73
2023/11/21 20:32:24;;;;;;;15.83;9.50;;;;;;;;;;4961875;28;20476;-72
2023/11/21 20:34:50;;;;;;;16.80;7.80;;;;;;;;;;4946897;28;20436;-72
2023/11/21 20:37:16;;;;;;;17.93;7.53;;;;;;;;;;4954619;28;20428;-71
2023/11/21 20:39:45;;;;;;;21.83;7.50;;;;;;;;;;4950843;28;20520;-71
2023/11/21 20:42:11;;;;;;;19.33;9.10;;;;;;;;;;4949885;28;20444;-71
2023/11/21 20:44:37;;;;;;;14.53;7.87;;;;;;;;;;4948033;28;20440;-73
2023/11/21 20:47:03;;;;;;;22.37;7.80;;;;;;;;;;4954551;28;20460;-73
2023/11/21 20:49:29;;;;;;;14.53;8.30;;;;;;;;;;4942467;28;20422;-73